createdAt,value
2023-05-06T00:01:20.366Z,20.50
2023-05-06T00:03:47.844Z,16.08
2023-05-06T00:06:15.201Z,17.60
2023-05-06T00:08:42.172Z,21.48
2023-05-06T00:11:09.297Z,20.13
2023-05-06T00:13:37.622Z,22.33
2023-05-06T00:16:05.106Z,20.10
2023-05-06T00:18:32.103Z,19.95
2023-05-06T00:20:59.149Z,19.60
2023-05-06T00:23:26.018Z,19.10
2023-05-06T00:25:54.968Z,19.08
2023-05-06T00:28:21.899Z,21.50
2023-05-06T00:30:49.012Z,21.77
2023-05-06T00:33:16.099Z,20.13
2023-05-06T00:35:43.128Z,17.77
2023-05-06T00:38:13.285Z,19.20
2023-05-06T00:40:40.495Z,22.38
2023-05-06T00:43:07.738Z,19.90
2023-05-06T00:45:36.968Z,20.27
2023-05-06T00:48:06.613Z,20.02
2023-05-06T00:50:35.060Z,19.92
2023-05-06T00:53:04.366Z,18.33
2023-05-06T00:55:32.771Z,18.17
2023-05-06T00:57:59.692Z,15.43
2023-05-06T01:00:26.841Z,18.30
2023-05-06T01:02:53.939Z,18.55
2023-05-06T01:05:23.786Z,17.13
2023-05-06T01:08:26.641Z,20.60
2023-05-06T01:11:02.442Z,18.23
2023-05-06T01:13:57.677Z,16.60
2023-05-06T01:16:28.000Z,17.95
2023-05-06T01:18:56.023Z,22.27
2023-05-06T01:21:24.233Z,15.32
2023-05-06T01:23:57.809Z,16.65
2023-05-06T01:26:25.749Z,19.67
2023-05-06T01:28:53.085Z,22.95
2023-05-06T01:31:38.864Z,16.27
2023-05-06T01:34:15.963Z,15.95
2023-05-06T01:37:10.677Z,18.30
2023-05-06T01:39:39.632Z,18.05
2023-05-06T01:42:10.645Z,19.33
2023-05-06T01:44:39.003Z,20.50
2023-05-06T01:47:07.584Z,17.48
2023-05-06T01:49:35.510Z,17.95
2023-05-06T01:52:02.643Z,22.40
2023-05-06T01:54:29.727Z,19.73
2023-05-06T01:56:56.592Z,17.27
2023-05-06T01:59:23.633Z,18.10
2023-05-06T02:01:52.033Z,18.40
2023-05-06T02:04:19.245Z,21.05
2023-05-06T02:06:46.157Z,20.15
2023-05-06T02:09:16.381Z,19.73
2023-05-06T02:11:49.347Z,16.35
2023-05-06T02:14:16.360Z,19.38
2023-05-06T02:16:43.234Z,19.10
2023-05-06T02:19:10.459Z,21.70
2023-05-06T02:21:37.338Z,22.42
2023-05-06T02:24:04.587Z,20.40
2023-05-06T02:26:31.477Z,22.33
2023-05-06T02:28:58.479Z,19.63
2023-05-06T02:31:25.797Z,22.02
2023-05-06T02:33:52.755Z,21.83
2023-05-06T02:36:19.646Z,19.38
2023-05-06T02:38:48.450Z,23.25
2023-05-06T02:41:15.634Z,18.60
2023-05-06T02:43:42.548Z,21.90
2023-05-06T02:46:09.492Z,19.52
2023-05-06T02:48:36.516Z,18.13
2023-05-06T02:51:05.143Z,22.08
2023-05-06T02:53:32.097Z,21.33
2023-05-06T02:55:59.098Z,20.30
2023-05-06T02:58:26.410Z,17.38
2023-05-06T03:00:53.369Z,18.23
2023-05-06T03:03:21.110Z,18.05
2023-05-06T03:05:48.015Z,16.77
2023-05-06T03:08:14.978Z,19.88
2023-05-06T03:10:42.073Z,17.95
2023-05-06T03:13:09.110Z,19.15
2023-05-06T03:15:36.173Z,17.90
2023-05-06T03:18:03.875Z,22.15
2023-05-06T03:20:30.889Z,21.95
2023-05-06T03:22:59.800Z,20.15
2023-05-06T03:25:27.039Z,21.00
2023-05-06T03:27:55.159Z,22.42
2023-05-06T03:30:23.580Z,22.52
2023-05-06T03:32:56.531Z,24.30
2023-05-06T03:35:29.608Z,21.48
2023-05-06T03:37:59.120Z,21.85
2023-05-06T03:40:31.202Z,20.90
2023-05-06T03:42:58.693Z,18.98
2023-05-06T03:45:25.654Z,22.33
2023-05-06T03:47:53.449Z,23.08
2023-05-06T03:50:22.660Z,23.73
2023-05-06T03:52:51.989Z,24.27
2023-05-06T03:55:20.175Z,22.75
2023-05-06T03:57:47.782Z,21.85
2023-05-06T04:00:14.946Z,22.42
2023-05-06T04:02:46.872Z,18.70
2023-05-06T04:05:21.528Z,22.90
2023-05-06T04:07:48.588Z,23.00
2023-05-06T04:10:15.537Z,20.63
2023-05-06T04:12:47.562Z,23.67
2023-05-06T04:15:19.829Z,21.27
2023-05-06T04:17:47.158Z,21.70
2023-05-06T04:20:14.532Z,23.67
2023-05-06T04:22:41.551Z,24.42
2023-05-06T04:25:09.613Z,22.92
2023-05-06T04:27:38.114Z,21.23
2023-05-06T04:30:08.567Z,22.92
2023-05-06T04:32:36.958Z,24.20
2023-05-06T04:35:05.926Z,24.05
2023-05-06T04:37:33.450Z,20.80
2023-05-06T04:40:10.632Z,24.95
2023-05-06T04:42:39.847Z,27.52
2023-05-06T04:45:12.930Z,21.65
2023-05-06T04:47:43.897Z,20.75
2023-05-06T04:50:11.479Z,22.25
2023-05-06T04:52:38.417Z,21.70
2023-05-06T04:55:06.616Z,17.20
2023-05-06T04:57:35.852Z,18.85
2023-05-06T05:00:04.575Z,16.42
2023-05-06T05:02:31.687Z,19.70
2023-05-06T05:04:58.854Z,14.55
2023-05-06T05:07:27.344Z,15.52
2023-05-06T05:09:54.405Z,16.85
2023-05-06T05:12:21.950Z,13.95
2023-05-06T05:14:51.356Z,17.30
2023-05-06T05:17:18.291Z,15.02
2023-05-06T05:19:47.679Z,13.48
2023-05-06T05:22:16.570Z,15.05
2023-05-06T05:24:44.580Z,15.68
2023-05-06T05:27:12.185Z,13.23
2023-05-06T05:29:40.327Z,21.27
2023-05-06T05:32:08.834Z,16.92
2023-05-06T05:34:36.306Z,15.07
2023-05-06T05:37:03.406Z,13.18
2023-05-06T05:39:31.487Z,16.15
2023-05-06T05:41:58.509Z,14.93
2023-05-06T05:44:26.067Z,12.68
2023-05-06T05:46:53.797Z,12.30
2023-05-06T05:49:21.661Z,12.18
2023-05-06T05:51:51.075Z,12.50
2023-05-06T05:54:19.615Z,12.70
2023-05-06T05:56:46.830Z,13.50
2023-05-06T05:59:14.657Z,14.07
2023-05-06T06:01:43.114Z,17.77
2023-05-06T06:04:10.928Z,20.85
2023-05-06T06:06:38.112Z,19.58
2023-05-06T06:09:05.631Z,18.40
2023-05-06T06:11:32.701Z,16.95
2023-05-06T06:14:00.466Z,16.63
2023-05-06T06:16:27.545Z,15.82
2023-05-06T06:18:55.840Z,12.88
2023-05-06T06:21:22.814Z,11.65
2023-05-06T06:23:49.871Z,13.07
2023-05-06T06:26:16.770Z,11.10
2023-05-06T06:28:44.880Z,12.68
2023-05-06T06:31:12.130Z,11.63
2023-05-06T06:33:39.150Z,10.15
2023-05-06T06:36:06.667Z,9.90
2023-05-06T06:38:33.767Z,11.65
2023-05-06T06:41:00.642Z,11.23
2023-05-06T06:43:27.889Z,10.25
2023-05-06T06:46:02.215Z,9.50
2023-05-06T06:48:29.312Z,9.02
2023-05-06T06:50:56.179Z,9.35
2023-05-06T06:53:23.200Z,11.88
2023-05-06T06:55:50.149Z,11.20
2023-05-06T06:58:17.123Z,10.10
2023-05-06T07:00:44.532Z,10.77
2023-05-06T07:03:11.646Z,10.32
2023-05-06T07:05:38.494Z,15.38
2023-05-06T07:08:05.679Z,12.95
2023-05-06T07:10:32.666Z,9.95
2023-05-06T07:12:59.802Z,11.00
2023-05-06T07:15:26.961Z,10.10
2023-05-06T07:17:54.256Z,9.68
2023-05-06T07:20:21.274Z,9.80
2023-05-06T07:22:48.208Z,11.52
2023-05-06T07:25:15.552Z,10.02
2023-05-06T07:27:42.569Z,9.80
2023-05-06T07:30:09.801Z,8.48
2023-05-06T07:32:37.135Z,9.60
2023-05-06T07:35:04.389Z,11.32
2023-05-06T07:37:31.413Z,9.93
2023-05-06T07:39:58.557Z,8.38
2023-05-06T07:42:25.787Z,9.43
2023-05-06T07:44:52.890Z,11.73
2023-05-06T07:47:34.529Z,7.95
2023-05-06T07:50:01.974Z,8.30
2023-05-06T07:52:29.224Z,9.43
2023-05-06T07:54:56.621Z,8.02
2023-05-06T07:57:23.862Z,7.65
2023-05-06T07:59:52.214Z,7.80
2023-05-06T08:02:19.353Z,5.90
2023-05-06T08:04:47.019Z,7.68
2023-05-06T08:07:15.804Z,8.77
2023-05-06T08:09:42.931Z,6.35
2023-05-06T08:12:10.100Z,7.90
2023-05-06T08:14:37.132Z,6.03
2023-05-06T08:17:04.382Z,5.25
2023-05-06T08:19:31.617Z,5.20
2023-05-06T08:21:58.545Z,7.75
2023-05-06T08:24:25.727Z,6.32
2023-05-06T08:26:52.846Z,5.72
2023-05-06T08:29:19.869Z,6.97
2023-05-06T08:31:47.371Z,4.88
2023-05-06T08:34:14.568Z,6.43
2023-05-06T08:36:41.421Z,6.72
2023-05-06T08:39:08.463Z,6.32
2023-05-06T08:41:39.816Z,4.97
2023-05-06T08:44:08.395Z,4.85
2023-05-06T08:46:35.826Z,7.55
2023-05-06T08:49:03.180Z,5.30
2023-05-06T08:51:31.980Z,5.97
2023-05-06T08:54:02.493Z,4.65
2023-05-06T08:56:33.012Z,6.40
2023-05-06T08:59:01.344Z,4.15
2023-05-06T09:01:28.963Z,4.97
2023-05-06T09:03:58.202Z,6.25
2023-05-06T09:06:25.243Z,5.22
2023-05-06T09:08:52.297Z,6.05
2023-05-06T09:11:29.649Z,5.00
2023-05-06T09:14:11.973Z,6.80
2023-05-06T09:16:41.560Z,6.72
2023-05-06T09:19:08.680Z,6.18
2023-05-06T09:21:41.134Z,5.00
2023-05-06T09:24:09.753Z,6.70
2023-05-06T09:26:38.486Z,5.05
2023-05-06T09:29:06.665Z,9.98
2023-05-06T09:31:39.816Z,5.65
2023-05-06T09:34:07.227Z,5.57
2023-05-06T09:36:34.141Z,6.47
2023-05-06T09:39:01.220Z,6.47
2023-05-06T09:41:28.814Z,6.05
2023-05-06T09:43:56.751Z,6.75
2023-05-06T09:46:24.881Z,5.15
2023-05-06T09:48:53.825Z,6.53
2023-05-06T09:51:21.524Z,6.55
2023-05-06T09:53:48.792Z,5.32
2023-05-06T09:56:16.669Z,5.38
2023-05-06T09:58:45.128Z,8.57
2023-05-06T10:01:19.234Z,9.02
2023-05-06T10:03:54.064Z,4.88
2023-05-06T10:06:24.328Z,6.47
2023-05-06T10:08:52.646Z,7.40
2023-05-06T10:11:21.332Z,5.28
2023-05-06T10:13:49.634Z,5.95
2023-05-06T10:16:18.489Z,7.22
2023-05-06T10:18:46.546Z,6.68
2023-05-06T10:21:24.822Z,8.55
2023-05-06T10:23:59.477Z,7.65
2023-05-06T10:26:29.964Z,7.57
2023-05-06T10:28:57.850Z,10.20
2023-05-06T10:31:26.148Z,6.90
2023-05-06T10:33:56.257Z,8.93
2023-05-06T10:36:28.787Z,7.47
2023-05-06T10:38:58.611Z,8.13
2023-05-06T10:41:28.154Z,7.10
2023-05-06T10:44:00.224Z,7.78
2023-05-06T10:46:30.779Z,9.75
2023-05-06T10:49:19.987Z,7.22
2023-05-06T10:52:11.688Z,8.18
2023-05-06T10:54:51.923Z,8.20
2023-05-06T10:57:21.842Z,7.18
2023-05-06T10:59:49.256Z,8.57
2023-05-06T11:02:20.376Z,6.78
2023-05-06T11:04:52.611Z,8.75
2023-05-06T11:07:24.003Z,7.65
2023-05-06T11:10:06.233Z,4.72
2023-05-06T11:12:52.801Z,5.57
2023-05-06T11:15:29.589Z,8.38
2023-05-06T11:17:57.459Z,7.23
2023-05-06T11:20:26.812Z,9.15
2023-05-06T11:22:54.678Z,8.35
2023-05-06T11:25:40.287Z,6.60
2023-05-06T11:30:41.959Z,7.90
2023-05-06T11:33:21.982Z,8.85
2023-05-06T11:35:49.191Z,6.40
2023-05-06T11:38:16.267Z,8.85
2023-05-06T11:40:43.555Z,7.55
2023-05-06T11:43:14.919Z,6.60
2023-05-06T11:45:45.855Z,8.25
2023-05-06T11:48:18.096Z,8.52
2023-05-06T11:50:47.609Z,7.93
2023-05-06T11:53:19.252Z,10.65
2023-05-06T11:55:47.200Z,7.93
2023-05-06T11:58:25.475Z,6.20
2023-05-06T12:00:57.395Z,6.85
2023-05-06T12:03:26.204Z,7.78
2023-05-06T12:05:53.712Z,10.80
2023-05-06T12:08:28.036Z,9.70
2023-05-06T12:11:01.830Z,9.65
2023-05-06T12:13:29.738Z,9.43
2023-05-06T12:15:59.521Z,7.38
2023-05-06T12:18:27.775Z,6.70
2023-05-06T12:21:02.893Z,8.52
2023-05-06T12:23:30.191Z,8.95
2023-05-06T12:26:09.283Z,8.00
2023-05-06T12:28:37.417Z,7.72
2023-05-06T12:31:24.369Z,9.25
2023-05-06T12:33:51.729Z,8.93
2023-05-06T12:36:19.723Z,7.40
2023-05-06T12:38:57.967Z,7.38
2023-05-06T12:41:36.184Z,7.82
2023-05-06T12:44:04.380Z,7.32
2023-05-06T12:46:31.535Z,13.25
2023-05-06T12:48:59.708Z,9.73
2023-05-06T12:51:27.445Z,11.05
2023-05-06T12:53:54.513Z,12.52
2023-05-06T12:56:24.660Z,9.70
2023-05-06T12:59:02.606Z,9.88
2023-05-06T13:01:29.639Z,10.75
2023-05-06T13:03:57.769Z,10.75
2023-05-06T13:06:25.188Z,9.70
2023-05-06T13:08:52.159Z,12.35
2023-05-06T13:11:19.248Z,7.78
2023-05-06T13:13:46.212Z,8.65
2023-05-06T13:16:13.262Z,14.82
2023-05-06T13:18:40.234Z,12.48
2023-05-06T13:21:07.354Z,12.70
2023-05-06T13:23:35.171Z,12.80
2023-05-06T13:26:06.033Z,10.75
2023-05-06T13:28:36.833Z,7.43
2023-05-06T13:31:04.097Z,14.43
2023-05-06T13:33:31.339Z,11.75
2023-05-06T13:35:58.298Z,15.48
2023-05-06T13:38:25.208Z,14.13
2023-05-06T13:40:53.249Z,9.32
2023-05-06T13:43:21.220Z,11.40
2023-05-06T13:45:48.445Z,10.50
2023-05-06T13:48:15.779Z,9.25
2023-05-06T13:50:46.948Z,14.13
2023-05-06T13:53:14.912Z,13.07
2023-05-06T13:55:43.011Z,10.20
2023-05-06T13:58:11.010Z,17.70
2023-05-06T14:00:38.969Z,13.25
2023-05-06T14:03:06.253Z,11.18
2023-05-06T14:05:33.213Z,11.38
2023-05-06T14:08:00.227Z,15.80
2023-05-06T14:10:27.621Z,11.90
2023-05-06T14:12:55.256Z,19.45
2023-05-06T14:15:22.327Z,14.00
2023-05-06T14:17:49.555Z,15.38
2023-05-06T14:20:16.855Z,14.98
2023-05-06T14:22:44.251Z,13.85
2023-05-06T14:25:11.821Z,17.48
2023-05-06T14:27:39.135Z,18.25
2023-05-06T14:30:09.364Z,13.43
2023-05-06T14:32:37.562Z,15.82
2023-05-06T14:35:05.208Z,14.98
2023-05-06T14:37:32.772Z,15.82
2023-05-06T14:39:59.943Z,14.95
2023-05-06T14:42:27.147Z,15.15
2023-05-06T14:44:55.052Z,17.30
2023-05-06T14:47:22.523Z,12.23
2023-05-06T14:49:49.764Z,15.93
2023-05-06T14:52:16.900Z,20.55
2023-05-06T14:54:44.821Z,14.07
2023-05-06T14:57:12.176Z,13.73
2023-05-06T14:59:39.262Z,13.60
2023-05-06T15:02:08.846Z,13.55
2023-05-06T15:04:36.798Z,12.55
2023-05-06T15:07:04.183Z,18.42
2023-05-06T15:09:31.368Z,13.15
2023-05-06T15:11:58.796Z,12.60
2023-05-06T15:14:25.909Z,11.85
2023-05-06T15:16:58.302Z,15.90
2023-05-06T15:19:25.818Z,14.65
2023-05-06T15:21:52.837Z,15.70
2023-05-06T15:24:19.888Z,11.75
2023-05-06T15:26:46.813Z,16.13
2023-05-06T15:29:14.153Z,14.25
2023-05-06T15:31:43.611Z,19.08
2023-05-06T15:34:11.892Z,16.92
2023-05-06T15:36:42.449Z,15.55
2023-05-06T15:39:09.696Z,16.05
2023-05-06T15:41:38.547Z,19.50
2023-05-06T15:44:06.379Z,13.93
2023-05-06T15:46:34.077Z,13.48
2023-05-06T15:49:32.049Z,10.60
2023-05-06T15:51:49.067Z,15.68
2023-05-06T15:54:18.332Z,14.32
2023-05-06T15:56:46.374Z,19.67
2023-05-06T15:59:13.582Z,18.85
2023-05-06T16:02:24.702Z,17.88
2023-05-06T16:04:30.062Z,16.83
2023-05-06T16:06:57.686Z,18.42
2023-05-06T16:09:24.928Z,21.02
2023-05-06T16:11:52.005Z,17.90
2023-05-06T16:14:18.977Z,19.05
2023-05-06T16:16:45.917Z,18.88
2023-05-06T16:19:13.019Z,24.17
2023-05-06T16:21:40.002Z,17.13
2023-05-06T16:24:07.129Z,19.08
2023-05-06T16:26:34.099Z,22.17
2023-05-06T16:29:01.742Z,17.65
2023-05-06T16:31:29.015Z,18.10
2023-05-06T16:33:56.603Z,18.08
2023-05-06T16:36:23.686Z,18.40
2023-05-06T16:38:50.827Z,21.80
2023-05-06T16:41:17.915Z,19.45
2023-05-06T16:43:44.930Z,18.15
2023-05-06T16:46:11.996Z,16.90
2023-05-06T16:48:39.141Z,18.27
2023-05-06T16:51:06.334Z,16.02
2023-05-06T16:53:33.539Z,16.05
2023-05-06T16:56:03.582Z,15.70
2023-05-06T16:58:30.578Z,15.77
2023-05-06T17:00:57.579Z,13.98
2023-05-06T17:03:24.791Z,17.88
2023-05-06T17:05:52.037Z,17.90
2023-05-06T17:08:19.320Z,14.18
2023-05-06T17:10:46.446Z,17.25
2023-05-06T17:13:13.931Z,17.90
2023-05-06T17:15:41.156Z,20.38
2023-05-06T17:18:08.405Z,19.65
2023-05-06T17:20:51.596Z,21.52
2023-05-06T17:23:21.983Z,18.88
2023-05-06T17:25:49.114Z,18.35
2023-05-06T17:28:18.009Z,21.73
2023-05-06T17:30:45.762Z,27.25
2023-05-06T17:33:13.030Z,22.08
2023-05-06T17:35:40.186Z,21.63
2023-05-06T17:38:07.876Z,22.83
2023-05-06T17:40:34.892Z,23.92
2023-05-06T17:43:02.082Z,22.02
2023-05-06T17:45:29.476Z,20.45
2023-05-06T17:47:56.858Z,24.65
2023-05-06T17:50:24.075Z,20.63
2023-05-06T17:52:53.040Z,23.38
2023-05-06T17:55:21.790Z,21.95
2023-05-06T17:57:49.460Z,26.77
2023-05-06T18:00:17.200Z,25.00
2023-05-06T18:02:44.977Z,22.67
2023-05-06T18:05:13.523Z,20.83
2023-05-06T18:07:41.153Z,23.50
2023-05-06T18:10:08.563Z,20.35
2023-05-06T18:12:35.610Z,22.33
2023-05-06T18:15:02.702Z,22.15
2023-05-06T18:17:29.627Z,21.52
2023-05-06T18:19:56.879Z,18.55
2023-05-06T18:22:23.998Z,21.17
2023-05-06T18:24:55.164Z,21.35
2023-05-06T18:27:22.917Z,20.02
2023-05-06T18:29:49.840Z,20.15
2023-05-06T18:32:17.754Z,23.10
2023-05-06T18:34:44.661Z,20.73
2023-05-06T18:37:11.628Z,26.45
2023-05-06T18:39:42.690Z,19.67
2023-05-06T18:42:10.218Z,19.65
2023-05-06T18:44:37.948Z,25.92
2023-05-06T18:47:05.138Z,22.38
2023-05-06T18:49:32.156Z,25.77
2023-05-06T18:51:59.286Z,26.55
2023-05-06T18:54:26.199Z,24.27
2023-05-06T18:56:53.377Z,23.20
2023-05-06T18:59:21.382Z,24.23
2023-05-06T19:01:48.493Z,31.55
2023-05-06T19:04:15.501Z,25.58
2023-05-06T19:06:42.568Z,24.15
2023-05-06T19:09:09.578Z,23.80
2023-05-06T19:11:36.681Z,23.10
2023-05-06T19:14:03.995Z,24.08
2023-05-06T19:16:31.215Z,29.08
2023-05-06T19:18:58.208Z,21.13
2023-05-06T19:21:25.302Z,24.65
2023-05-06T19:23:53.261Z,30.27
2023-05-06T19:26:21.114Z,23.42
2023-05-06T19:28:48.225Z,23.67
2023-05-06T19:31:15.517Z,25.58
2023-05-06T19:33:43.254Z,26.70
2023-05-06T19:36:10.729Z,27.08
2023-05-06T19:38:37.958Z,22.90
2023-05-06T19:41:05.207Z,25.13
2023-05-06T19:43:32.259Z,33.17
2023-05-06T19:45:59.449Z,30.67
2023-05-06T19:48:26.441Z,26.98
2023-05-06T19:50:54.120Z,31.30
2023-05-06T19:53:22.807Z,27.15
2023-05-06T19:55:50.068Z,24.90
2023-05-06T19:58:18.941Z,27.85
2023-05-06T20:00:46.172Z,26.88
2023-05-06T20:03:13.529Z,25.55
2023-05-06T20:05:41.305Z,29.50
2023-05-06T20:08:11.687Z,28.92
2023-05-06T20:10:38.887Z,24.35
2023-05-06T20:13:07.134Z,26.38
2023-05-06T20:15:35.801Z,31.20
2023-05-06T20:18:02.898Z,31.85
2023-05-06T20:20:36.104Z,28.88
2023-05-06T20:23:03.778Z,28.92
2023-05-06T20:25:31.191Z,30.25
2023-05-06T20:27:59.368Z,26.08
2023-05-06T20:30:26.806Z,31.73
2023-05-06T20:32:54.016Z,29.77
2023-05-06T20:35:21.070Z,30.08
2023-05-06T20:37:48.053Z,34.70
2023-05-06T20:40:15.302Z,31.35
2023-05-06T20:42:42.344Z,31.95
2023-05-06T20:45:09.893Z,33.10
2023-05-06T20:47:37.234Z,34.92
2023-05-06T20:50:04.448Z,32.25
2023-05-06T20:52:31.670Z,36.70
2023-05-06T20:54:58.661Z,32.55
2023-05-06T20:57:25.824Z,32.50
2023-05-06T20:59:52.907Z,36.42
2023-05-06T21:02:20.048Z,30.98
2023-05-06T21:04:47.316Z,32.13
2023-05-06T21:07:14.493Z,31.50
2023-05-06T21:09:41.745Z,33.25
2023-05-06T21:12:08.731Z,32.08
2023-05-06T21:14:35.697Z,33.85
2023-05-06T21:17:02.945Z,35.85
2023-05-06T21:19:30.000Z,35.92
2023-05-06T21:21:57.996Z,30.65
2023-05-06T21:24:24.864Z,31.65
2023-05-06T21:26:52.892Z,30.45
2023-05-06T21:29:21.243Z,30.05
2023-05-06T21:31:48.151Z,27.40
2023-05-06T21:34:15.284Z,35.03
2023-05-06T21:36:42.401Z,31.67
2023-05-06T21:39:12.682Z,25.70
2023-05-06T21:41:40.565Z,30.38
2023-05-06T21:44:08.849Z,24.70
2023-05-06T21:46:37.828Z,27.17
2023-05-06T21:49:05.315Z,25.02
2023-05-06T21:51:33.737Z,27.65
2023-05-06T21:54:00.943Z,27.55
2023-05-06T21:56:28.104Z,29.08
2023-05-06T21:58:58.317Z,27.90
2023-05-06T22:01:29.220Z,31.25
2023-05-06T22:03:56.590Z,25.63
2023-05-06T22:06:23.631Z,32.88
2023-05-06T22:08:50.688Z,27.02
2023-05-06T22:11:17.741Z,29.33
2023-05-06T22:13:44.667Z,29.23
2023-05-06T22:16:11.579Z,27.35
2023-05-06T22:18:41.476Z,29.42
2023-05-06T22:21:09.617Z,27.98
2023-05-06T22:23:36.795Z,26.10
2023-05-06T22:26:03.874Z,26.90
2023-05-06T22:28:30.914Z,33.20
2023-05-06T22:30:58.161Z,29.40
2023-05-06T22:33:26.440Z,33.45
2023-05-06T22:35:53.766Z,32.70
2023-05-06T22:38:21.006Z,29.38
2023-05-06T22:40:47.976Z,31.98
2023-05-06T22:43:14.878Z,32.40
2023-05-06T22:45:41.824Z,36.42
2023-05-06T22:48:08.744Z,32.90
2023-05-06T22:50:36.504Z,32.72
2023-05-06T22:53:13.741Z,31.58
2023-05-06T22:55:42.355Z,38.38
2023-05-06T22:58:09.300Z,34.85
2023-05-06T23:00:36.592Z,35.55
2023-05-06T23:03:03.658Z,42.63
2023-05-06T23:05:30.684Z,39.42
2023-05-06T23:07:57.562Z,35.65
2023-05-06T23:10:24.628Z,37.92
2023-05-06T23:12:51.588Z,41.08
2023-05-06T23:15:18.679Z,37.65
2023-05-06T23:17:45.784Z,35.25
2023-05-06T23:20:12.950Z,37.17
2023-05-06T23:22:39.866Z,36.13
2023-05-06T23:25:09.265Z,39.17
2023-05-06T23:27:41.679Z,34.42
2023-05-06T23:30:10.854Z,36.60
2023-05-06T23:32:38.062Z,35.47
2023-05-06T23:35:07.416Z,32.03
2023-05-06T23:37:34.604Z,34.45
2023-05-06T23:40:01.626Z,36.65
2023-05-06T23:42:28.547Z,36.00
2023-05-06T23:44:55.535Z,41.22
2023-05-06T23:47:24.468Z,36.97
2023-05-06T23:49:51.633Z,28.73
2023-05-06T23:52:18.499Z,35.53
2023-05-06T23:54:45.531Z,37.35
2023-05-06T23:57:12.548Z,38.95
2023-05-06T23:59:39.513Z,31.63
